Time;durP1;ratioP1;P1;durP2;ratioP2;P2;SDS_P1;SDS_P2;PMS_P1;PMS_P2;Temp;Humidity;BMP_temperature;BMP_pressure;BME280_temperature;BME280_humidity;BME280_pressure;Samples;Min_cycle;Max_cycle;Signal;HPM_P1;HPM_P2
2021/09/12 00:00:13;;;;;;;5.50;2.00;;;19.10;82.70;;;;;;5083757;28;20016;-78
2021/09/12 00:02:38;;;;;;;3.75;1.63;;;19.10;82.60;;;;;;5076322;28;20051;-78
2021/09/12 00:05:06;;;;;;;4.95;2.10;;;19.10;82.60;;;;;;5078760;28;20036;-78
2021/09/12 00:07:31;;;;;;;6.97;2.10;;;19.10;82.50;;;;;;5074833;28;20028;-78
2021/09/12 00:09:57;;;;;;;3.50;1.90;;;19.10;82.50;;;;;;5075612;28;20370;-78
2021/09/12 00:12:22;;;;;;;4.60;2.40;;;19.10;82.50;;;;;;5084486;28;20367;-78
2021/09/12 00:14:48;;;;;;;6.32;2.80;;;19.10;82.50;;;;;;5078376;28;20095;-78
2021/09/12 00:17:14;;;;;;;5.55;2.50;;;19.00;82.60;;;;;;5081115;28;20036;-78
2021/09/12 00:19:39;;;;;;;5.70;2.58;;;19.00;82.70;;;;;;5077248;28;20019;-78
2021/09/12 00:22:05;;;;;;;5.45;2.38;;;19.00;82.70;;;;;;5073270;28;20108;-78
2021/09/12 00:24:30;;;;;;;5.28;2.35;;;19.00;82.70;;;;;;5076034;28;20055;-79
2021/09/12 00:26:56;;;;;;;4.70;2.65;;;19.00;82.70;;;;;;5087810;28;20027;-79
2021/09/12 00:29:22;;;;;;;4.68;2.72;;;19.00;82.80;;;;;;5075614;28;20497;-79
2021/09/12 00:31:48;;;;;;;6.00;2.95;;;19.00;82.90;;;;;;5077551;28;20518;-79
2021/09/12 00:34:14;;;;;;;4.20;2.42;;;19.00;82.90;;;;;;5072947;28;20391;-79
2021/09/12 00:36:40;;;;;;;6.50;3.05;;;19.00;83.00;;;;;;5079243;28;20024;-79
2021/09/12 00:39:05;;;;;;;5.53;3.22;;;19.00;83.00;;;;;;5077654;28;20398;-79
2021/09/12 00:41:42;;;;;;;7.47;3.65;;;18.90;83.00;;;;;;5077624;28;20609;-79
2021/09/12 00:44:11;;;;;;;7.10;2.90;;;18.90;83.20;;;;;;5071624;28;20020;-79
2021/09/12 00:46:42;;;;;;;3.97;2.38;;;18.90;83.20;;;;;;5078174;28;20386;-80
2021/09/12 00:49:08;;;;;;;7.07;4.05;;;18.90;84.00;;;;;;5077133;28;20028;-79
2021/09/12 00:51:34;;;;;;;6.80;4.22;;;18.90;83.40;;;;;;5076956;28;20017;-79
2021/09/12 00:54:03;;;;;;;6.10;3.53;;;18.90;83.50;;;;;;5073884;28;20071;-79
2021/09/12 00:56:30;;;;;;;7.57;3.72;;;18.80;83.50;;;;;;5076096;28;20498;-79
2021/09/12 00:58:59;;;;;;;5.22;2.70;;;18.80;84.30;;;;;;5077004;28;20078;-79
2021/09/12 01:01:25;;;;;;;8.27;3.80;;;18.80;83.60;;;;;;5072709;28;20550;-78
2021/09/12 01:03:52;;;;;;;9.50;4.50;;;18.80;83.60;;;;;;5074564;28;20021;-79
2021/09/12 01:06:18;;;;;;;11.75;5.63;;;18.80;83.60;;;;;;5071264;28;20504;-78
2021/09/12 01:08:43;;;;;;;8.85;4.90;;;18.80;83.70;;;;;;5076220;28;20103;-78
2021/09/12 01:11:09;;;;;;;5.00;3.58;;;18.70;83.90;;;;;;5077787;28;20450;-78
2021/09/12 01:13:39;;;;;;;7.05;4.28;;;18.70;83.90;;;;;;5077758;28;20032;-79
2021/09/12 01:16:13;;;;;;;6.47;4.03;;;18.70;83.90;;;;;;5074402;28;20375;-78
2021/09/12 01:18:39;;;;;;;6.32;3.70;;;18.70;83.80;;;;;;5074226;28;20386;-79
2021/09/12 01:21:08;;;;;;;4.60;3.40;;;18.70;83.90;;;;;;5078509;28;20016;-78
2021/09/12 01:23:34;;;;;;;4.50;3.42;;;18.70;83.80;;;;;;5075992;28;20020;-79
2021/09/12 01:25:59;;;;;;;5.93;4.13;;;18.70;83.80;;;;;;5080449;28;20020;-79
2021/09/12 01:28:25;;;;;;;6.32;3.60;;;18.70;83.80;;;;;;5079491;28;20016;-79
2021/09/12 01:30:50;;;;;;;5.28;3.13;;;18.70;83.90;;;;;;5077558;28;20051;-78
2021/09/12 01:33:16;;;;;;;6.30;3.25;;;18.70;83.80;;;;;;5074755;28;20040;-78
2021/09/12 01:35:41;;;;;;;6.00;3.80;;;18.70;83.80;;;;;;5076289;28;20089;-79
2021/09/12 01:38:07;;;;;;;5.97;4.03;;;18.70;83.80;;;;;;5084413;28;20043;-78
2021/09/12 01:40:32;;;;;;;10.13;3.88;;;18.70;83.80;;;;;;5077182;28;20040;-78
2021/09/12 01:42:58;;;;;;;5.53;3.40;;;18.70;83.80;;;;;;5074144;28;20024;-78
2021/09/12 01:45:24;;;;;;;4.07;3.20;;;18.70;83.90;;;;;;5068609;28;20024;-79
2021/09/12 01:47:49;;;;;;;6.15;3.22;;;18.60;83.80;;;;;;5082784;28;20028;-78
2021/09/12 01:50:16;;;;;;;6.35;3.90;;;18.60;83.80;;;;;;5076021;28;20777;-79
2021/09/12 01:52:42;;;;;;;3.55;2.40;;;18.60;83.80;;;;;;5077172;28;20027;-79
2021/09/12 01:55:09;;;;;;;6.07;2.88;;;18.60;83.80;;;;;;5087081;28;20038;-79
2021/09/12 01:57:35;;;;;;;5.07;3.53;;;18.50;83.80;;;;;;5072060;28;20059;-79
2021/09/12 02:00:00;;;;;;;5.97;3.22;;;18.50;83.80;;;;;;5071156;28;20067;-78
2021/09/12 02:02:26;;;;;;;3.90;3.00;;;18.50;83.80;;;;;;5075582;28;20064;-79
2021/09/12 02:04:51;;;;;;;3.90;2.97;;;18.50;83.80;;;;;;5075879;28;20023;-79
2021/09/12 02:07:17;;;;;;;4.07;2.92;;;18.50;83.80;;;;;;5076695;28;20056;-78
2021/09/12 02:09:42;;;;;;;6.15;3.63;;;18.40;83.80;;;;;;5069950;28;20028;-78
2021/09/12 02:12:08;;;;;;;5.60;3.58;;;18.40;83.90;;;;;;5076626;28;20111;-78
2021/09/12 02:14:33;;;;;;;5.63;3.65;;;18.30;84.00;;;;;;5074141;28;20132;-78
2021/09/12 02:16:59;;;;;;;5.97;3.70;;;18.30;84.00;;;;;;5081641;28;20032;-78
2021/09/12 02:19:24;;;;;;;5.78;3.72;;;18.30;84.00;;;;;;5071218;28;20048;-78
2021/09/12 02:21:50;;;;;;;4.95;3.08;;;18.20;84.10;;;;;;5076490;28;20033;-78
2021/09/12 02:24:15;;;;;;;4.50;2.65;;;18.20;84.20;;;;;;5073194;28;20587;-79
2021/09/12 02:26:41;;;;;;;4.90;2.92;;;18.20;84.10;;;;;;5074565;28;20024;-79
2021/09/12 02:29:07;;;;;;;7.63;3.95;;;18.10;84.20;;;;;;5096495;28;20561;-78
2021/09/12 02:31:32;;;;;;;6.85;3.80;;;18.10;84.10;;;;;;5072174;28;20021;-78
2021/09/12 02:33:59;;;;;;;6.82;3.70;;;18.10;84.10;;;;;;5076562;28;20478;-78
2021/09/12 02:36:24;;;;;;;5.18;2.90;;;18.10;84.00;;;;;;5077175;28;20032;-78
2021/09/12 02:38:50;;;;;;;7.30;3.20;;;18.10;83.90;;;;;;5074999;28;20028;-78
2021/09/12 02:41:16;;;;;;;5.00;2.70;;;18.00;83.90;;;;;;5076749;28;21493;-78
2021/09/12 02:43:41;;;;;;;7.00;3.50;;;18.00;83.90;;;;;;5072063;28;20524;-78
2021/09/12 02:46:07;;;;;;;6.05;3.10;;;18.00;83.80;;;;;;5071414;28;20032;-78
2021/09/12 02:48:32;;;;;;;6.32;3.53;;;17.90;83.80;;;;;;5077237;28;20368;-78
2021/09/12 02:50:58;;;;;;;4.20;2.70;;;17.80;83.80;;;;;;5074775;28;20025;-78
2021/09/12 02:53:23;;;;;;;5.63;3.20;;;17.80;83.80;;;;;;5076597;28;20433;-78
2021/09/12 02:55:49;;;;;;;3.40;2.10;;;17.80;83.80;;;;;;5070914;28;20104;-78
2021/09/12 02:58:14;;;;;;;4.20;2.50;;;17.80;83.90;;;;;;5070692;28;20040;-78
2021/09/12 03:00:40;;;;;;;5.28;2.80;;;17.80;83.80;;;;;;5074999;28;20047;-78
2021/09/12 03:03:05;;;;;;;4.18;2.80;;;17.70;83.80;;;;;;5070947;28;20059;-78
2021/09/12 03:05:31;;;;;;;4.03;2.28;;;17.70;83.70;;;;;;5075576;28;20497;-78
2021/09/12 03:07:56;;;;;;;5.93;2.65;;;17.70;83.60;;;;;;5071496;28;20779;-78
2021/09/12 03:10:22;;;;;;;4.53;2.70;;;17.60;83.40;;;;;;5071188;28;20070;-77
2021/09/12 03:12:47;;;;;;;4.63;2.58;;;17.60;83.40;;;;;;5071747;28;20020;-78
2021/09/12 03:15:13;;;;;;;3.88;2.70;;;17.60;83.30;;;;;;5093546;28;20020;-78
2021/09/12 03:17:38;;;;;;;6.53;3.08;;;17.50;83.20;;;;;;5078789;28;20040;-78
2021/09/12 03:20:04;;;;;;;3.80;2.42;;;17.50;83.10;;;;;;5070970;28;20021;-77
2021/09/12 03:22:30;;;;;;;2.83;2.15;;;17.50;83.10;;;;;;5077300;28;20034;-78
2021/09/12 03:24:56;;;;;;;3.50;2.30;;;17.40;83.10;;;;;;5075098;28;20021;-78
2021/09/12 03:27:21;;;;;;;5.68;2.70;;;17.40;83.00;;;;;;5078389;28;20077;-78
2021/09/12 03:29:47;;;;;;;3.80;2.90;;;17.30;83.10;;;;;;5071899;28;20029;-78
2021/09/12 03:32:12;;;;;;;3.72;2.40;;;17.30;83.10;;;;;;5070553;28;20032;-78
2021/09/12 03:34:38;;;;;;;3.88;2.35;;;17.30;83.10;;;;;;5077248;28;20024;-78
2021/09/12 03:37:04;;;;;;;4.78;2.88;;;17.20;83.10;;;;;;5069129;28;20550;-78
2021/09/12 03:39:29;;;;;;;6.07;3.47;;;17.20;83.00;;;;;;5071419;28;20410;-78
2021/09/12 03:41:55;;;;;;;4.88;2.97;;;17.20;83.00;;;;;;5079584;28;20482;-78
2021/09/12 03:44:20;;;;;;;4.32;2.85;;;17.10;83.00;;;;;;5075377;28;20024;-79
2021/09/12 03:46:46;;;;;;;4.95;3.20;;;17.00;83.10;;;;;;5071261;28;20028;-79
2021/09/12 03:49:11;;;;;;;5.10;3.05;;;17.00;83.20;;;;;;5070081;28;20515;-78
2021/09/12 03:51:37;;;;;;;8.48;3.70;;;16.90;83.30;;;;;;5071756;28;20463;-79
2021/09/12 03:54:03;;;;;;;3.83;2.92;;;16.90;83.30;;;;;;5071003;28;20047;-79
2021/09/12 03:56:28;;;;;;;6.80;3.50;;;16.90;83.30;;;;;;5073591;28;20028;-77
2021/09/12 03:58:54;;;;;;;4.82;2.95;;;16.80;83.30;;;;;;5071971;28;20032;-76
2021/09/12 04:01:19;;;;;;;6.30;3.78;;;16.80;83.40;;;;;;5076768;28;20035;-76
2021/09/12 04:03:45;;;;;;;5.88;3.58;;;16.70;83.30;;;;;;5073036;28;20390;-78
2021/09/12 04:06:10;;;;;;;5.10;3.78;;;16.70;83.40;;;;;;5070393;28;20024;-78
2021/09/12 04:08:36;;;;;;;5.43;3.70;;;16.70;83.50;;;;;;5072779;28;20578;-77
2021/09/12 04:11:02;;;;;;;5.65;2.90;;;16.60;83.50;;;;;;5070369;28;20028;-77
2021/09/12 04:13:27;;;;;;;5.15;2.90;;;16.60;83.50;;;;;;5079746;28;20122;-77
2021/09/12 04:15:53;;;;;;;5.55;3.47;;;16.60;83.60;;;;;;5074954;28;20506;-77
2021/09/12 04:18:18;;;;;;;5.28;3.08;;;16.60;83.60;;;;;;5070706;28;20390;-77
2021/09/12 04:20:44;;;;;;;5.65;3.63;;;16.50;83.60;;;;;;5076264;28;20029;-77
2021/09/12 04:23:09;;;;;;;6.63;4.20;;;16.50;83.60;;;;;;5077136;28;20036;-77
2021/09/12 04:25:35;;;;;;;5.90;3.38;;;16.50;83.50;;;;;;5073958;28;20021;-77
2021/09/12 04:28:00;;;;;;;6.05;3.75;;;16.50;83.50;;;;;;5071530;28;20129;-78
2021/09/12 04:30:26;;;;;;;6.32;3.58;;;16.50;83.50;;;;;;5077261;28;20169;-77
2021/09/12 04:32:51;;;;;;;5.95;3.72;;;16.50;83.50;;;;;;5075267;28;20021;-77
2021/09/12 04:35:17;;;;;;;6.13;3.65;;;16.40;83.40;;;;;;5068598;28;20331;-76
2021/09/12 04:37:42;;;;;;;5.47;3.35;;;16.30;83.50;;;;;;5069065;28;20044;-76
2021/09/12 04:40:09;;;;;;;5.43;3.55;;;16.40;83.60;;;;;;5073498;28;20023;-77
2021/09/12 04:42:34;;;;;;;6.05;3.85;;;16.30;83.50;;;;;;5085043;28;20111;-77
2021/09/12 04:45:00;;;;;;;7.30;3.95;;;16.30;83.50;;;;;;5077927;28;20040;-77
2021/09/12 04:47:25;;;;;;;7.00;3.72;;;16.30;83.50;;;;;;5074503;28;20028;-77
2021/09/12 04:49:51;;;;;;;8.93;4.50;;;16.20;83.60;;;;;;5072862;28;20078;-77
2021/09/12 04:52:16;;;;;;;6.68;3.72;;;16.20;83.60;;;;;;5075490;28;20033;-77
2021/09/12 04:54:42;;;;;;;7.78;4.50;;;16.20;83.60;;;;;;5081976;28;20028;-77
2021/09/12 04:57:07;;;;;;;7.13;4.38;;;16.20;83.60;;;;;;5073631;28;20571;-76
2021/09/12 04:59:33;;;;;;;5.80;3.83;;;16.10;83.50;;;;;;5072559;28;20025;-77
2021/09/12 05:01:59;;;;;;;6.13;4.10;;;16.10;83.60;;;;;;5073951;28;20462;-78
2021/09/12 05:04:24;;;;;;;6.22;3.60;;;16.10;83.60;;;;;;5074249;28;20052;-78
2021/09/12 05:06:50;;;;;;;8.32;3.88;;;16.10;83.60;;;;;;5080653;28;20032;-78
2021/09/12 05:09:15;;;;;;;7.18;4.10;;;16.10;83.50;;;;;;5072893;28;20386;-79
2021/09/12 05:11:41;;;;;;;8.05;4.30;;;16.10;83.50;;;;;;5073769;28;20028;-77
2021/09/12 05:14:07;;;;;;;8.45;4.70;;;16.10;83.50;;;;;;5075406;28;20444;-78
2021/09/12 05:16:32;;;;;;;7.95;4.18;;;16.10;83.50;;;;;;5078513;28;20040;-78
2021/09/12 05:18:58;;;;;;;7.07;3.88;;;16.00;83.40;;;;;;5073014;28;20033;-77
2021/09/12 05:21:23;;;;;;;6.03;3.90;;;16.00;83.50;;;;;;5068806;28;20025;-77
2021/09/12 05:23:49;;;;;;;7.05;3.70;;;16.10;83.50;;;;;;5067743;28;20033;-77
2021/09/12 05:26:14;;;;;;;9.55;5.60;;;16.00;83.40;;;;;;5075680;28;20050;-78
2021/09/12 05:28:40;;;;;;;7.97;4.30;;;16.00;83.40;;;;;;5077603;28;20029;-78
2021/09/12 05:31:05;;;;;;;7.65;4.57;;;16.10;83.50;;;;;;5074002;28;20031;-79
2021/09/12 05:33:31;;;;;;;6.25;4.10;;;16.10;83.40;;;;;;5072535;28;20067;-78
2021/09/12 05:35:57;;;;;;;9.02;5.60;;;16.00;83.30;;;;;;5073413;28;20021;-78
2021/09/12 05:38:22;;;;;;;8.90;6.50;;;16.10;83.20;;;;;;5072590;28;20037;-78
2021/09/12 05:40:48;;;;;;;7.10;4.82;;;16.00;83.10;;;;;;5072950;28;20027;-78
2021/09/12 05:43:14;;;;;;;9.05;4.90;;;16.10;83.10;;;;;;5074380;28;20029;-78
2021/09/12 05:45:40;;;;;;;8.70;5.13;;;16.10;83.10;;;;;;5075479;28;20028;-78
2021/09/12 05:48:06;;;;;;;8.02;4.53;;;16.20;82.90;;;;;;5070367;28;20082;-77
2021/09/12 05:50:32;;;;;;;8.20;4.85;;;16.40;82.50;;;;;;5074403;28;20021;-78
2021/09/12 05:52:57;;;;;;;5.95;3.95;;;16.70;81.80;;;;;;5077000;28;20036;-78
2021/09/12 05:55:23;;;;;;;4.32;3.25;;;17.10;81.00;;;;;;5074863;28;20024;-78
2021/09/12 05:57:48;;;;;;;9.80;5.55;;;17.40;80.20;;;;;;5075123;28;20500;-78
2021/09/12 06:00:14;;;;;;;6.47;4.20;;;17.80;79.10;;;;;;5071874;28;20028;-78
2021/09/12 06:02:40;;;;;;;6.93;4.00;;;18.20;78.10;;;;;;5077240;28;20051;-81
2021/09/12 06:05:06;;;;;;;5.70;4.05;;;18.30;77.30;;;;;;5067875;28;20047;-79
2021/09/12 06:07:32;;;;;;;6.70;4.53;;;18.60;76.80;;;;;;5080256;28;20024;-79
2021/09/12 06:09:58;;;;;;;7.72;4.95;;;18.90;76.20;;;;;;5075870;28;20020;-77
2021/09/12 06:12:26;;;;;;;6.90;4.40;;;19.30;75.10;;;;;;5085854;28;20035;-82
2021/09/12 06:14:51;;;;;;;9.15;4.65;;;19.50;74.40;;;;;;5075579;28;20031;-80
2021/09/12 06:17:17;;;;;;;7.90;4.57;;;19.70;73.60;;;;;;5084291;28;20044;-80
2021/09/12 06:19:43;;;;;;;4.78;3.17;;;19.60;73.40;;;;;;5074940;28;20028;-78
2021/09/12 06:22:08;;;;;;;6.90;4.75;;;19.60;73.50;;;;;;5071073;28;20754;-79
2021/09/12 06:24:34;;;;;;;6.75;4.70;;;19.50;73.40;;;;;;5073766;28;20029;-79
2021/09/12 06:27:00;;;;;;;8.80;5.10;;;19.70;73.30;;;;;;5076525;28;20419;-79
2021/09/12 06:29:26;;;;;;;12.27;6.35;;;19.90;72.60;;;;;;5080356;28;20070;-79
2021/09/12 06:31:51;;;;;;;11.20;6.55;;;20.10;71.30;;;;;;5071412;28;20037;-79
2021/09/12 06:34:17;;;;;;;9.48;6.35;;;20.10;71.00;;;;;;5069691;28;20039;-79
2021/09/12 06:36:43;;;;;;;8.93;5.15;;;20.40;69.90;;;;;;5084469;28;20020;-79
2021/09/12 06:39:09;;;;;;;7.47;4.82;;;20.70;69.70;;;;;;5090628;28;20058;-79
2021/09/12 06:41:35;;;;;;;9.25;5.40;;;20.70;69.00;;;;;;5070925;28;20020;-79
2021/09/12 06:44:00;;;;;;;8.02;4.75;;;20.50;69.10;;;;;;5071065;28;20485;-79
2021/09/12 06:46:26;;;;;;;11.70;7.50;;;20.40;69.90;;;;;;5072358;28;20103;-79
2021/09/12 06:48:51;;;;;;;6.90;4.70;;;20.20;69.30;;;;;;5072467;28;20443;-79
2021/09/12 06:51:17;;;;;;;7.30;5.13;;;20.20;70.30;;;;;;5075949;28;20513;-79
2021/09/12 06:53:42;;;;;;;10.60;6.43;;;20.30;70.30;;;;;;5072717;28;20037;-79
2021/09/12 06:56:08;;;;;;;6.07;4.40;;;20.10;70.10;;;;;;5070355;28;20025;-76
2021/09/12 06:58:34;;;;;;;7.55;4.93;;;20.00;70.90;;;;;;5079227;28;20438;-79
2021/09/12 07:00:59;;;;;;;12.07;7.32;;;19.90;71.10;;;;;;5071449;28;20479;-78
2021/09/12 07:03:26;;;;;;;9.07;6.03;;;19.80;70.60;;;;;;5078485;28;20569;-78
2021/09/12 07:05:51;;;;;;;8.68;5.35;;;19.60;71.30;;;;;;5073709;28;20017;-79
2021/09/12 07:08:17;;;;;;;6.90;4.60;;;19.60;71.80;;;;;;5062456;28;20074;-77
2021/09/12 07:10:43;;;;;;;5.68;4.00;;;19.70;72.00;;;;;;5075824;28;20035;-78
2021/09/12 07:13:09;;;;;;;6.47;3.88;;;19.70;72.00;;;;;;5070928;28;20049;-77
2021/09/12 07:15:34;;;;;;;6.13;3.80;;;19.50;72.20;;;;;;5075243;28;20029;-79
2021/09/12 07:18:00;;;;;;;7.43;4.82;;;19.40;72.50;;;;;;5074422;28;20117;-78
2021/09/12 07:20:26;;;;;;;8.30;5.63;;;19.30;72.50;;;;;;5072441;28;20368;-78
2021/09/12 07:22:51;;;;;;;5.65;3.78;;;19.10;72.40;;;;;;5072501;28;20032;-79
2021/09/12 07:25:17;;;;;;;8.15;4.68;;;19.00;72.90;;;;;;5070580;28;20028;-78
2021/09/12 07:27:42;;;;;;;7.20;4.00;;;18.90;73.10;;;;;;5068074;28;20080;-78
2021/09/12 07:30:09;;;;;;;11.13;5.57;;;18.90;73.30;;;;;;5068014;28;20031;-79
2021/09/12 07:32:35;;;;;;;7.05;3.97;;;18.90;73.30;;;;;;5071403;28;20032;-79
2021/09/12 07:35:00;;;;;;;6.55;4.00;;;18.80;73.60;;;;;;5072623;28;20105;-79
2021/09/12 07:37:26;;;;;;;6.78;4.40;;;18.90;73.80;;;;;;5074772;28;20395;-78
2021/09/12 07:39:51;;;;;;;5.50;3.05;;;18.90;73.70;;;;;;5070620;28;20112;-78
2021/09/12 07:42:17;;;;;;;5.53;3.50;;;19.00;73.70;;;;;;5072225;28;20417;-79
2021/09/12 07:44:42;;;;;;;6.57;4.10;;;19.10;73.60;;;;;;5078750;28;20046;-79
2021/09/12 07:47:08;;;;;;;7.18;3.38;;;19.20;73.40;;;;;;5078349;28;20028;-79
2021/09/12 07:49:33;;;;;;;5.97;3.00;;;19.20;73.40;;;;;;5070300;28;20025;-79
2021/09/12 07:51:59;;;;;;;6.00;3.60;;;19.20;73.50;;;;;;5069624;28;20074;-78
2021/09/12 07:54:24;;;;;;;5.28;2.85;;;19.30;73.60;;;;;;5077468;28;20064;-79
2021/09/12 07:56:50;;;;;;;7.03;4.60;;;19.40;73.70;;;;;;5074215;28;20032;-79
2021/09/12 07:59:15;;;;;;;8.70;4.68;;;19.40;73.50;;;;;;5070338;28;20020;-79
2021/09/12 08:01:41;;;;;;;6.05;3.78;;;19.30;73.50;;;;;;5070989;28;20020;-78
2021/09/12 08:04:06;;;;;;;10.88;5.00;;;19.30;73.60;;;;;;5079309;28;20025;-80
2021/09/12 08:06:32;;;;;;;6.22;4.50;;;19.20;73.80;;;;;;5071831;28;20028;-80
2021/09/12 08:08:57;;;;;;;5.78;3.95;;;19.20;73.70;;;;;;5068303;28;20529;-82
2021/09/12 08:11:23;;;;;;;8.63;4.60;;;19.20;73.90;;;;;;5071245;28;20029;-82
2021/09/12 08:13:48;;;;;;;7.47;4.25;;;19.20;74.00;;;;;;5072544;28;20031;-81
2021/09/12 08:16:14;;;;;;;6.88;4.28;;;19.30;74.10;;;;;;5072550;28;20125;-78
2021/09/12 08:18:40;;;;;;;6.38;4.10;;;19.40;74.10;;;;;;5084149;28;20036;-79
2021/09/12 08:21:05;;;;;;;8.55;4.90;;;19.50;73.90;;;;;;5069025;28;20032;-80
2021/09/12 08:23:31;;;;;;;5.43;4.15;;;19.50;73.80;;;;;;5075492;28;20048;-79
2021/09/12 08:25:56;;;;;;;7.65;4.57;;;19.40;73.80;;;;;;5074082;28;20058;-80
2021/09/12 08:28:22;;;;;;;7.43;4.75;;;19.40;73.90;;;;;;5068764;28;20025;-81
2021/09/12 08:30:47;;;;;;;7.95;4.63;;;19.40;74.00;;;;;;5074011;28;20612;-79
2021/09/12 08:33:15;;;;;;;4.55;3.03;;;19.50;74.00;;;;;;5067827;28;20036;-80
2021/09/12 08:35:42;;;;;;;6.15;4.13;;;19.60;73.90;;;;;;5072671;28;20017;-80
2021/09/12 08:38:08;;;;;;;7.13;4.55;;;19.70;73.70;;;;;;5069025;28;20040;-79
2021/09/12 08:40:34;;;;;;;5.38;3.90;;;19.80;73.70;;;;;;5069955;28;20032;-79
2021/09/12 08:43:00;;;;;;;6.95;3.85;;;19.90;73.60;;;;;;5071327;28;20092;-83
2021/09/12 08:45:27;;;;;;;11.27;6.50;;;20.00;73.40;;;;;;5069771;28;20367;-79
2021/09/12 08:47:53;;;;;;;5.43;4.05;;;19.90;73.00;;;;;;5072626;28;20038;-81
2021/09/12 08:50:19;;;;;;;9.52;5.88;;;19.90;73.40;;;;;;5074976;28;20118;-80
2021/09/12 08:52:45;;;;;;;8.70;6.28;;;19.80;73.50;;;;;;5074214;28;20105;-80
2021/09/12 08:55:11;;;;;;;7.55;5.57;;;19.80;73.50;;;;;;5069177;28;20029;-79
2021/09/12 08:57:50;;;;;;;9.07;5.07;;;19.80;73.50;;;;;;5066648;28;20064;-79
2021/09/12 09:00:21;;;;;;;8.70;5.85;;;19.80;73.50;;;;;;5070918;28;20025;-80
2021/09/12 09:02:46;;;;;;;9.93;6.28;;;19.80;73.50;;;;;;5069444;28;20055;-79
2021/09/12 09:05:12;;;;;;;8.65;4.68;;;19.80;73.70;;;;;;5074055;28;20052;-79
2021/09/12 09:07:37;;;;;;;9.15;5.30;;;19.80;73.90;;;;;;5069696;28;20403;-78
2021/09/12 09:10:16;;;;;;;9.10;5.90;;;19.80;73.70;;;;;;5073667;28;20009;-80
2021/09/12 09:12:42;;;;;;;12.80;8.25;;;19.80;73.80;;;;;;5072026;28;20040;-78
2021/09/12 09:15:15;;;;;;;8.27;5.65;;;19.70;73.50;;;;;;5074046;28;20398;-79
2021/09/12 09:17:44;;;;;;;7.43;4.80;;;19.70;73.80;;;;;;5071399;28;20123;-79
2021/09/12 09:20:12;;;;;;;7.53;5.15;;;19.80;73.80;;;;;;5073007;28;20017;-80
2021/09/12 09:22:43;;;;;;;7.63;5.15;;;19.90;73.70;;;;;;5073531;28;20551;-81
2021/09/12 09:25:10;;;;;;;11.93;7.78;;;20.10;73.40;;;;;;5067377;28;20100;-80
2021/09/12 09:28:06;;;;;;;7.65;5.07;;;20.10;73.10;;;;;;5066935;28;20033;-81
2021/09/12 09:30:34;;;;;;;11.00;6.60;;;20.10;73.10;;;;;;5068295;28;20036;-79
2021/09/12 09:33:12;;;;;;;9.48;6.63;;;20.20;72.80;;;;;;5066848;28;20538;-82
2021/09/12 09:35:38;;;;;;;8.68;5.50;;;20.30;72.50;;;;;;5064042;28;20025;-84
2021/09/12 09:38:04;;;;;;;11.27;7.53;;;20.20;72.40;;;;;;5070236;28;20032;-82
2021/09/12 09:40:29;;;;;;;7.32;5.05;;;20.10;72.20;;;;;;5065568;28;20032;-80
2021/09/12 09:42:55;;;;;;;9.77;6.88;;;20.10;72.40;;;;;;5067796;28;20021;-81
2021/09/12 09:45:38;;;;;;;9.30;4.95;;;20.20;72.30;;;;;;5073343;28;20017;-82
2021/09/12 09:48:12;;;;;;;10.05;7.43;;;20.20;72.40;;;;;;5068141;28;20111;-84
2021/09/12 09:50:39;;;;;;;9.23;5.15;;;20.20;72.00;;;;;;5072459;28;20024;-82
2021/09/12 09:53:09;;;;;;;9.88;5.53;;;20.20;73.00;;;;;;5073684;28;20463;-82
2021/09/12 09:55:35;;;;;;;10.23;5.28;;;20.30;72.40;;;;;;5070168;28;20046;-81
2021/09/12 09:58:06;;;;;;;6.90;4.28;;;20.40;72.20;;;;;;5075100;28;20123;-83
2021/09/12 10:00:35;;;;;;;7.53;5.43;;;20.60;72.20;;;;;;5073068;28;20360;-81
2021/09/12 10:03:01;;;;;;;7.22;4.03;;;20.80;71.90;;;;;;5072806;28;20029;-83
2021/09/12 10:05:27;;;;;;;6.07;4.65;;;20.80;71.70;;;;;;5073222;28;20419;-83
2021/09/12 10:07:55;;;;;;;6.20;4.43;;;21.00;71.60;;;;;;5071673;28;20031;-84
2021/09/12 10:10:21;;;;;;;7.97;6.07;;;21.10;71.40;;;;;;5071115;28;20091;-85
2021/09/12 10:12:51;;;;;;;6.57;4.25;;;21.10;70.90;;;;;;5074951;28;20082;-85
2021/09/12 10:15:31;;;;;;;5.35;4.07;;;21.10;70.90;;;;;;5063622;28;20070;-84
2021/09/12 10:17:58;;;;;;;5.05;3.50;;;21.10;71.00;;;;;;5076435;28;20056;-84
2021/09/12 10:20:26;;;;;;;5.90;4.10;;;21.20;71.00;;;;;;5073634;28;20032;-84
2021/09/12 10:22:58;;;;;;;6.80;4.57;;;21.20;71.00;;;;;;5086087;28;20074;-84
2021/09/12 10:25:25;;;;;;;6.63;4.85;;;21.10;71.00;;;;;;5074827;28;20040;-83
2021/09/12 10:28:03;;;;;;;8.80;5.35;;;21.10;71.10;;;;;;5079983;28;20100;-83
2021/09/12 10:30:37;;;;;;;5.50;3.58;;;21.00;71.00;;;;;;5075877;28;20029;-84
2021/09/12 10:33:09;;;;;;;5.93;4.25;;;21.00;71.40;;;;;;5079421;28;20036;-83
2021/09/12 10:35:38;;;;;;;6.55;4.25;;;21.00;71.40;;;;;;5079554;28;20028;-83
2021/09/12 10:38:11;;;;;;;8.52;5.88;;;21.00;71.40;;;;;;5079462;28;20120;-84
2021/09/12 10:40:46;;;;;;;8.77;6.05;;;20.90;71.50;;;;;;5078197;28;20236;-83
2021/09/12 10:43:24;;;;;;;7.20;4.60;;;20.80;71.40;;;;;;5064196;28;20063;-83
2021/09/12 10:46:09;;;;;;;7.78;5.05;;;20.80;71.60;;;;;;5063893;28;20030;-84
2021/09/12 10:49:05;;;;;;;8.45;5.22;;;20.80;71.60;;;;;;5081867;28;20021;-84
2021/09/12 10:51:31;;;;;;;7.50;5.60;;;20.80;71.60;;;;;;5075684;28;20107;-83
2021/09/12 10:54:01;;;;;;;6.03;4.28;;;20.70;71.60;;;;;;5068055;28;20107;-83
2021/09/12 10:56:29;;;;;;;10.02;7.18;;;20.70;71.80;;;;;;5088814;28;20020;-82
2021/09/12 10:59:02;;;;;;;7.47;5.57;;;20.70;71.70;;;;;;5065528;28;20036;-81
2021/09/12 11:01:33;;;;;;;7.07;4.68;;;20.70;71.90;;;;;;5075090;28;20024;-83
2021/09/12 11:04:01;;;;;;;12.60;5.63;;;20.80;71.80;;;;;;5077160;28;20024;-82
2021/09/12 11:06:29;;;;;;;6.13;4.20;;;20.80;71.80;;;;;;5077449;28;20040;-82
2021/09/12 11:08:55;;;;;;;10.20;5.47;;;21.00;71.80;;;;;;5080486;28;20029;-81
2021/09/12 11:11:23;;;;;;;8.38;5.05;;;21.10;71.70;;;;;;5084428;28;20107;-82
2021/09/12 11:13:55;;;;;;;10.25;6.63;;;21.20;71.50;;;;;;5081260;28;20027;-82
2021/09/12 11:16:22;;;;;;;10.10;7.00;;;21.30;71.10;;;;;;5071165;28;20020;-82
2021/09/12 11:18:52;;;;;;;12.18;7.47;;;21.40;70.80;;;;;;5068265;28;20645;-82
2021/09/12 11:21:29;;;;;;;9.88;6.85;;;21.50;70.50;;;;;;5070112;28;20025;-82
2021/09/12 11:24:09;;;;;;;8.38;5.55;;;21.70;70.40;;;;;;5074483;28;20077;-81
2021/09/12 11:26:42;;;;;;;9.52;6.68;;;21.80;70.00;;;;;;5074684;28;20013;-82
2021/09/12 11:29:14;;;;;;;11.18;7.35;;;21.90;69.80;;;;;;5072170;28;20042;-85
2021/09/12 11:31:41;;;;;;;;;;;21.80;69.90;;;;;;5076090;28;20027;-80
2021/09/12 11:34:07;;;;;;;9.00;6.40;;;21.70;70.10;;;;;;5074165;28;19955;-81
2021/09/12 11:36:40;;;;;;;7.60;5.60;;;21.60;70.40;;;;;;5076908;28;20020;-82
2021/09/12 11:39:06;;;;;;;8.95;5.50;;;21.50;70.70;;;;;;5071703;28;20145;-81
2021/09/12 11:41:32;;;;;;;8.40;5.50;;;21.60;70.90;;;;;;5070355;28;20621;-81
2021/09/12 11:43:59;;;;;;;8.43;5.63;;;21.60;70.90;;;;;;5070076;28;20103;-82
2021/09/12 11:46:26;;;;;;;9.88;6.28;;;21.50;70.90;;;;;;5081151;28;20024;-81
2021/09/12 11:48:57;;;;;;;8.93;5.85;;;21.40;71.10;;;;;;5079362;28;20504;-81
2021/09/12 11:51:28;;;;;;;8.30;6.63;;;21.40;71.20;;;;;;5068422;28;20036;-81
2021/09/12 11:54:07;;;;;;;6.10;5.07;;;21.40;71.20;;;;;;5080618;28;20553;-82
2021/09/12 11:56:33;;;;;;;5.88;4.30;;;21.50;71.30;;;;;;5069141;28;20532;-81
2021/09/12 11:59:00;;;;;;;7.60;5.60;;;21.40;71.40;;;;;;5076154;28;20028;-81
2021/09/12 12:01:25;;;;;;;11.07;6.18;;;21.40;71.50;;;;;;5073041;28;20051;-84
2021/09/12 12:03:52;;;;;;;7.78;5.68;;;21.50;71.50;;;;;;5082842;28;20032;-84
2021/09/12 12:06:17;;;;;;;9.93;6.22;;;21.60;71.40;;;;;;5076063;28;20073;-83
2021/09/12 12:09:02;;;;;;;9.05;5.70;;;21.70;71.10;;;;;;5076178;28;20252;-82
2021/09/12 12:11:27;;;;;;;9.18;6.65;;;21.90;70.90;;;;;;5085160;28;20082;-82
2021/09/12 12:13:53;;;;;;;7.93;6.28;;;21.90;70.50;;;;;;5072896;28;20020;-84
2021/09/12 12:16:18;;;;;;;10.80;7.68;;;22.10;70.50;;;;;;5066829;28;20036;-83
2021/09/12 12:18:44;;;;;;;11.07;6.78;;;22.10;70.10;;;;;;5074558;28;20159;-82
2021/09/12 12:21:12;;;;;;;9.65;7.10;;;22.20;70.20;;;;;;5075018;28;20385;-82
2021/09/12 12:23:38;;;;;;;10.63;7.32;;;22.40;70.00;;;;;;5075274;28;20028;-83
2021/09/12 12:26:16;;;;;;;8.98;7.03;;;22.40;69.50;;;;;;5081700;28;20043;-83
2021/09/12 12:28:41;;;;;;;8.45;7.35;;;22.50;69.30;;;;;;5077193;28;20028;-82
2021/09/12 12:31:15;;;;;;;12.60;9.40;;;22.60;69.00;;;;;;5073045;28;20033;-82
2021/09/12 12:33:43;;;;;;;10.50;8.20;;;22.70;68.50;;;;;;5084265;28;20028;-83
2021/09/12 12:36:17;;;;;;;8.48;7.03;;;22.70;68.20;;;;;;5080714;28;20031;-82
2021/09/12 12:38:43;;;;;;;8.55;6.63;;;22.80;68.20;;;;;;5084981;28;20368;-82
2021/09/12 12:41:11;;;;;;;8.82;6.35;;;22.80;68.10;;;;;;5079235;28;20525;-83
2021/09/12 12:43:38;;;;;;;8.95;7.97;;;22.80;68.00;;;;;;5078319;28;20464;-83